Time,TemperatureF,DewpointF,PressureIn,WindDirection,WindDirectionDegrees,WindSpeedMPH,WindSpeedGustMPH,Humidity,HourlyPrecipIn,Conditions,Clouds,dailyrainin,SoftwareType,DateUTC
2013-02-06 00:00:00,46.9,38.0,29.09,North,0,0.0,0.0,71,0.00,,,0.00,VWS V12.08,2013-02-06 05:00:00,
2013-02-06 00:05:00,46.9,38.8,29.09,North,0,0.0,0.0,73,0.00,,,0.00,VWS V12.08,2013-02-06 05:05:00,
2013-02-06 00:10:00,46.8,38.6,29.09,North,0,0.0,0.0,73,0.00,,,0.00,VWS V12.08,2013-02-06 05:10:00,
2013-02-06 00:15:00,46.6,38.4,29.09,North,0,0.0,0.0,73,0.00,,,0.00,VWS V12.08,2013-02-06 05:15:00,
2013-02-06 00:20:00,46.4,38.2,29.09,North,0,0.0,0.0,73,0.00,,,0.00,VWS V12.08,2013-02-06 05:20:00,
2013-02-06 00:25:00,46.2,38.8,29.09,North,0,0.0,0.0,75,0.00,,,0.00,VWS V12.08,2013-02-06 05:25:00,
2013-02-06 00:30:00,46.0,38.6,29.09,North,0,0.0,0.0,75,0.00,,,0.00,VWS V12.08,2013-02-06 05:30:00,
2013-02-06 00:35:00,46.0,38.6,29.09,North,0,0.0,0.0,75,0.00,,,0.00,VWS V12.08,2013-02-06 05:35:00,
2013-02-06 00:40:00,46.0,38.6,29.09,North,0,0.0,0.0,75,0.00,,,0.00,VWS V12.08,2013-02-06 05:40:00,
2013-02-06 00:45:00,46.0,38.6,29.09,North,0,0.0,0.0,75,0.00,,,0.00,VWS V12.08,2013-02-06 05:45:00,
2013-02-06 00:50:00,45.7,38.2,29.09,North,0,0.0,0.0,75,0.00,,,0.00,VWS V12.08,2013-02-06 05:50:00,
2013-02-06 00:55:00,45.7,38.2,29.09,North,0,0.0,0.0,75,0.00,,,0.00,VWS V12.08,2013-02-06 05:55:00,
2013-02-06 01:00:00,45.7,38.2,29.09,North,0,0.0,0.0,75,0.00,,,0.00,VWS V12.08,2013-02-06 06:00:00,
2013-02-06 01:05:00,45.5,38.0,29.09,North,0,0.0,0.0,75,0.00,,,0.00,VWS V12.08,2013-02-06 06:05:00,
2013-02-06 01:10:00,45.3,38.5,29.09,North,0,0.0,0.0,77,0.00,,,0.00,VWS V12.08,2013-02-06 06:10:00,
2013-02-06 01:15:00,45.1,38.4,29.09,North,0,0.0,0.0,77,0.00,,,0.00,VWS V12.08,2013-02-06 06:15:00,
2013-02-06 01:20:00,45.1,39.0,29.09,North,0,0.0,0.0,79,0.00,,,0.00,VWS V12.08,2013-02-06 06:20:00,
2013-02-06 01:25:00,45.1,39.0,29.09,North,0,0.0,0.0,79,0.00,,,0.00,VWS V12.08,2013-02-06 06:25:00,
2013-02-06 01:30:00,45.1,39.0,29.09,North,0,0.0,0.0,79,0.00,,,0.00,VWS V12.08,2013-02-06 06:30:00,
2013-02-06 01:35:00,45.1,39.0,29.09,North,0,0.0,0.0,79,0.00,,,0.00,VWS V12.08,2013-02-06 06:35:00,
2013-02-06 01:40:00,45.1,39.0,29.12,North,0,0.0,0.0,79,0.00,,,0.00,VWS V12.08,2013-02-06 06:40:00,
2013-02-06 01:45:00,45.1,39.0,29.12,North,0,0.0,0.0,79,0.00,,,0.00,VWS V12.08,2013-02-06 06:45:00,
2013-02-06 01:50:00,45.0,39.5,29.12,North,0,0.0,0.0,81,0.00,,,0.00,VWS V12.08,2013-02-06 06:50:00,
2013-02-06 01:55:00,44.8,39.3,29.09,North,0,0.0,0.0,81,0.00,,,0.00,VWS V12.08,2013-02-06 06:55:00,
2013-02-06 02:00:00,44.8,39.3,29.09,North,0,0.0,0.0,81,0.00,,,0.00,VWS V12.08,2013-02-06 07:00:00,
2013-02-06 02:05:00,44.8,39.3,29.09,North,0,0.0,0.0,81,0.00,,,0.00,VWS V12.08,2013-02-06 07:05:00,
2013-02-06 02:10:00,44.8,39.3,29.12,North,0,0.0,0.0,81,0.00,,,0.00,VWS V12.08,2013-02-06 07:10:00,
2013-02-06 02:15:00,44.6,39.1,29.12,North,0,0.0,0.0,81,0.00,,,0.00,VWS V12.08,2013-02-06 07:15:00,
2013-02-06 02:20:00,44.4,39.0,29.12,North,0,0.0,0.0,81,0.00,,,0.00,VWS V12.08,2013-02-06 07:20:00,
2013-02-06 02:25:00,44.2,39.4,29.12,North,0,0.0,0.0,83,0.00,,,0.00,VWS V12.08,2013-02-06 07:25:00,
2013-02-06 02:30:00,44.4,39.6,29.12,North,0,0.0,0.0,83,0.00,,,0.00,VWS V12.08,2013-02-06 07:30:00,
2013-02-06 02:35:00,44.2,39.4,29.12,North,0,0.0,0.0,83,0.00,,,0.00,VWS V12.08,2013-02-06 07:35:00,
2013-02-06 02:40:00,44.2,39.4,29.12,North,0,0.0,0.0,83,0.00,,,0.00,VWS V12.08,2013-02-06 07:40:00,
2013-02-06 02:45:00,44.1,39.2,29.12,North,0,0.0,0.0,83,0.00,,,0.00,VWS V12.08,2013-02-06 07:45:00,
2013-02-06 02:50:00,44.1,39.8,29.12,North,0,0.0,0.0,85,0.00,,,0.00,VWS V12.08,2013-02-06 07:50:00,
2013-02-06 02:55:00,43.9,39.7,29.12,North,0,0.0,0.0,85,0.00,,,0.00,VWS V12.08,2013-02-06 07:55:00,
2013-02-06 03:00:00,43.9,39.7,29.12,North,0,0.0,0.0,85,0.00,,,0.00,VWS V12.08,2013-02-06 08:00:00,
2013-02-06 03:05:00,43.5,39.3,29.12,North,0,0.0,0.0,85,0.00,,,0.00,VWS V12.08,2013-02-06 08:05:00,
2013-02-06 03:10:00,43.3,39.1,29.12,North,0,0.0,0.0,85,0.00,,,0.00,VWS V12.08,2013-02-06 08:10:00,
2013-02-06 03:15:00,43.3,39.1,29.12,North,0,0.0,0.0,85,0.00,,,0.00,VWS V12.08,2013-02-06 08:15:00,
2013-02-06 03:20:00,43.5,39.3,29.12,North,0,0.0,0.0,85,0.00,,,0.00,VWS V12.08,2013-02-06 08:20:00,
2013-02-06 03:25:00,43.5,39.3,29.12,North,0,0.0,0.0,85,0.00,,,0.00,VWS V12.08,2013-02-06 08:25:00,
2013-02-06 03:30:00,43.5,39.3,29.12,North,0,0.0,0.0,85,0.00,,,0.00,VWS V12.08,2013-02-06 08:30:00,
2013-02-06 03:35:00,43.3,39.1,29.12,North,0,0.0,0.0,85,0.00,,,0.00,VWS V12.08,2013-02-06 08:35:00,
2013-02-06 03:40:00,43.2,39.0,29.12,North,0,0.0,0.0,85,0.00,,,0.00,VWS V12.08,2013-02-06 08:40:00,
2013-02-06 03:45:00,43.0,38.8,29.12,North,0,0.0,0.0,85,0.00,,,0.00,VWS V12.08,2013-02-06 08:45:00,
2013-02-06 03:50:00,43.0,38.8,29.12,North,0,0.0,0.0,85,0.00,,,0.00,VWS V12.08,2013-02-06 08:50:00,
2013-02-06 03:55:00,42.8,39.2,29.12,North,0,0.0,0.0,87,0.00,,,0.00,VWS V12.08,2013-02-06 08:55:00,
2013-02-06 04:00:00,42.4,39.4,29.12,North,0,0.0,0.0,89,0.00,,,0.00,VWS V12.08,2013-02-06 09:00:00,
2013-02-06 04:05:00,42.4,39.4,29.12,North,0,0.0,0.0,89,0.00,,,0.00,VWS V12.08,2013-02-06 09:05:00,
2013-02-06 04:10:00,42.8,39.8,29.12,North,0,0.0,0.0,89,0.00,,,0.00,VWS V12.08,2013-02-06 09:10:00,
2013-02-06 04:15:00,43.0,40.0,29.12,North,0,0.0,0.0,89,0.00,,,0.00,VWS V12.08,2013-02-06 09:15:00,
2013-02-06 04:20:00,43.0,40.0,29.12,North,0,0.0,0.0,89,0.00,,,0.00,VWS V12.08,2013-02-06 09:20:00,
2013-02-06 04:25:00,43.0,40.0,29.12,North,0,0.0,0.0,89,0.00,,,0.00,VWS V12.08,2013-02-06 09:25:00,
2013-02-06 04:30:00,43.0,40.0,29.12,North,0,0.0,0.0,89,0.00,,,0.00,VWS V12.08,2013-02-06 09:30:00,
2013-02-06 04:35:00,43.0,40.0,29.12,North,0,0.0,0.0,89,0.00,,,0.00,VWS V12.08,2013-02-06 09:35:00,
2013-02-06 04:40:00,42.8,39.8,29.15,North,0,0.0,0.0,89,0.00,,,0.00,VWS V12.08,2013-02-06 09:40:00,
2013-02-06 04:45:00,42.8,39.8,29.15,North,0,0.0,0.0,89,0.00,,,0.00,VWS V12.08,2013-02-06 09:45:00,
2013-02-06 04:50:00,42.8,40.4,29.15,North,0,0.0,0.0,91,0.00,,,0.00,VWS V12.08,2013-02-06 09:50:00,
2013-02-06 04:55:00,43.0,41.1,29.15,North,0,0.0,0.0,93,0.00,,,0.00,VWS V12.08,2013-02-06 09:55:00,
2013-02-06 05:00:00,43.0,41.7,29.15,North,0,0.0,0.0,95,0.00,,,0.00,VWS V12.08,2013-02-06 10:00:00,
2013-02-06 05:05:00,43.0,42.2,29.15,North,0,0.0,0.0,97,0.00,,,0.00,VWS V12.08,2013-02-06 10:05:00,
2013-02-06 05:10:00,43.0,42.2,29.15,North,0,0.0,0.0,97,0.00,,,0.00,VWS V12.08,2013-02-06 10:10:00,
2013-02-06 05:15:00,42.8,41.5,29.15,North,0,0.0,0.0,95,0.00,,,0.00,VWS V12.08,2013-02-06 10:15:00,
2013-02-06 05:20:00,42.6,41.3,29.15,North,0,0.0,0.0,95,0.00,,,0.00,VWS V12.08,2013-02-06 10:20:00,
2013-02-06 05:25:00,41.5,39.7,29.15,North,0,0.0,0.0,93,0.00,,,0.00,VWS V12.08,2013-02-06 10:25:00,
2013-02-06 05:30:00,41.0,39.1,29.15,North,0,0.0,0.0,93,0.00,,,0.00,VWS V12.08,2013-02-06 10:30:00,
2013-02-06 05:35:00,40.5,38.6,29.15,North,0,0.0,0.0,93,0.00,,,0.00,VWS V12.08,2013-02-06 10:35:00,
2013-02-06 05:40:00,40.5,38.6,29.15,North,0,0.0,0.0,93,0.00,,,0.00,VWS V12.08,2013-02-06 10:40:00,
2013-02-06 05:45:00,40.5,38.6,29.15,North,0,0.0,0.0,93,0.00,,,0.00,VWS V12.08,2013-02-06 10:45:00,
2013-02-06 05:50:00,39.9,37.5,29.15,North,0,0.0,0.0,91,0.00,,,0.00,VWS V12.08,2013-02-06 10:50:00,
2013-02-06 05:55:00,39.7,37.3,29.15,North,0,0.0,0.0,91,0.00,,,0.00,VWS V12.08,2013-02-06 10:55:00,
2013-02-06 06:00:00,39.7,37.3,29.15,North,0,0.0,0.0,91,0.00,,,0.00,VWS V12.08,2013-02-06 11:00:00,
2013-02-06 06:05:00,39.7,37.3,29.15,North,0,0.0,0.0,91,0.00,,,0.00,VWS V12.08,2013-02-06 11:05:00,
2013-02-06 06:10:00,39.9,37.5,29.18,North,0,0.0,0.0,91,0.00,,,0.00,VWS V12.08,2013-02-06 11:10:00,
2013-02-06 06:15:00,40.3,37.9,29.18,North,0,0.0,0.0,91,0.00,,,0.00,VWS V12.08,2013-02-06 11:15:00,
2013-02-06 06:20:00,40.6,38.2,29.18,North,0,0.0,0.0,91,0.00,,,0.00,VWS V12.08,2013-02-06 11:20:00,
2013-02-06 06:25:00,40.8,38.4,29.18,North,0,0.0,0.0,91,0.00,,,0.00,VWS V12.08,2013-02-06 11:25:00,
2013-02-06 06:30:00,41.0,38.0,29.18,North,0,0.0,0.0,89,0.00,,,0.00,VWS V12.08,2013-02-06 11:30:00,
2013-02-06 06:35:00,41.2,38.2,29.18,North,0,0.0,0.0,89,0.00,,,0.00,VWS V12.08,2013-02-06 11:35:00,
2013-02-06 06:40:00,41.2,38.2,29.18,North,0,0.0,0.0,89,0.00,,,0.00,VWS V12.08,2013-02-06 11:40:00,
2013-02-06 06:45:00,41.2,38.2,29.18,North,0,0.0,0.0,89,0.00,,,0.00,VWS V12.08,2013-02-06 11:45:00,
2013-02-06 06:50:00,41.2,38.2,29.18,North,0,0.0,0.0,89,0.00,,,0.00,VWS V12.08,2013-02-06 11:50:00,
2013-02-06 06:55:00,41.2,38.2,29.18,North,0,0.0,0.0,89,0.00,,,0.00,VWS V12.08,2013-02-06 11:55:00,
2013-02-06 07:00:00,41.0,38.0,29.18,North,0,0.0,0.0,89,0.00,,,0.00,VWS V12.08,2013-02-06 12:00:00,
2013-02-06 07:05:00,41.0,38.0,29.18,North,0,0.0,0.0,89,0.00,,,0.00,VWS V12.08,2013-02-06 12:05:00,
2013-02-06 07:10:00,41.0,38.0,29.18,North,0,0.0,0.0,89,0.00,,,0.00,VWS V12.08,2013-02-06 12:10:00,
2013-02-06 07:15:00,41.0,38.0,29.18,North,0,0.0,0.0,89,0.00,,,0.00,VWS V12.08,2013-02-06 12:15:00,
2013-02-06 07:20:00,40.6,37.7,29.18,North,0,0.0,0.0,89,0.00,,,0.00,VWS V12.08,2013-02-06 12:20:00,
2013-02-06 07:25:00,40.6,37.7,29.18,North,0,0.0,0.0,89,0.00,,,0.00,VWS V12.08,2013-02-06 12:25:00,
2013-02-06 07:30:00,40.6,37.7,29.18,North,0,0.0,0.0,89,0.00,,,0.00,VWS V12.08,2013-02-06 12:30:00,
2013-02-06 07:35:00,40.6,38.2,29.18,North,0,0.0,0.0,91,0.00,,,0.00,VWS V12.08,2013-02-06 12:35:00,
2013-02-06 07:40:00,40.6,38.2,29.18,North,0,0.0,0.0,91,0.00,,,0.00,VWS V12.08,2013-02-06 12:40:00,
2013-02-06 07:45:00,40.8,38.4,29.18,North,0,0.0,0.0,91,0.00,,,0.00,VWS V12.08,2013-02-06 12:45:00,
2013-02-06 07:50:00,41.0,38.0,29.18,North,0,0.0,0.0,89,0.00,,,0.00,VWS V12.08,2013-02-06 12:50:00,
2013-02-06 07:55:00,41.0,38.0,29.21,North,0,0.0,0.0,89,0.00,,,0.00,VWS V12.08,2013-02-06 12:55:00,
2013-02-06 08:00:00,41.2,38.2,29.21,North,0,0.0,0.0,89,0.00,,,0.00,VWS V12.08,2013-02-06 13:00:00,
2013-02-06 08:05:00,41.4,38.4,29.21,North,0,0.0,0.0,89,0.00,,,0.00,VWS V12.08,2013-02-06 13:05:00,
2013-02-06 08:10:00,41.2,38.2,29.21,North,0,0.0,0.0,89,0.00,,,0.00,VWS V12.08,2013-02-06 13:10:00,
2013-02-06 08:15:00,41.2,38.2,29.21,North,0,0.0,0.0,89,0.00,,,0.00,VWS V12.08,2013-02-06 13:15:00,
2013-02-06 08:20:00,41.2,38.8,29.21,North,0,0.0,0.0,91,0.00,,,0.00,VWS V12.08,2013-02-06 13:20:00,
2013-02-06 08:25:00,41.5,39.1,29.21,North,0,0.0,0.0,91,0.00,,,0.00,VWS V12.08,2013-02-06 13:25:00,
2013-02-06 08:30:00,41.7,39.3,29.21,North,0,0.0,0.0,91,0.00,,,0.00,VWS V12.08,2013-02-06 13:30:00,
2013-02-06 08:35:00,42.1,39.7,29.21,North,0,0.0,0.0,91,0.00,,,0.00,VWS V12.08,2013-02-06 13:35:00,
2013-02-06 08:40:00,42.8,40.4,29.21,North,0,0.0,0.0,91,0.00,,,0.00,VWS V12.08,2013-02-06 13:40:00,
2013-02-06 08:45:00,43.7,41.8,29.21,North,0,0.0,0.0,93,0.00,,,0.00,VWS V12.08,2013-02-06 13:45:00,
2013-02-06 08:50:00,44.6,42.7,29.21,North,0,0.0,0.0,93,0.00,,,0.00,VWS V12.08,2013-02-06 13:50:00,
2013-02-06 08:55:00,45.3,44.0,29.21,North,0,0.0,0.0,95,0.00,,,0.00,VWS V12.08,2013-02-06 13:55:00,
2013-02-06 09:00:00,45.5,44.2,29.21,North,0,0.0,0.0,95,0.00,,,0.00,VWS V12.08,2013-02-06 14:00:00,
2013-02-06 09:06:00,45.7,43.2,29.21,North,0,0.0,0.0,91,0.00,,,0.00,VWS V12.08,2013-02-06 14:06:00,
2013-02-06 09:11:00,46.0,43.6,29.21,North,0,0.0,0.0,91,0.00,,,0.00,VWS V12.08,2013-02-06 14:11:00,
2013-02-06 09:16:00,46.4,43.9,29.21,North,0,0.0,0.0,91,0.00,,,0.00,VWS V12.08,2013-02-06 14:16:00,
2013-02-06 09:21:00,46.9,44.5,29.21,North,0,0.0,0.0,91,0.00,,,0.00,VWS V12.08,2013-02-06 14:21:00,
2013-02-06 09:26:00,47.8,45.9,29.23,North,0,0.0,0.0,93,0.00,,,0.00,VWS V12.08,2013-02-06 14:26:00,
2013-02-06 09:31:00,48.0,44.9,29.23,North,0,0.0,0.0,89,0.00,,,0.00,VWS V12.08,2013-02-06 14:31:00,
2013-02-06 09:36:00,48.2,43.3,29.23,North,0,0.0,0.0,83,0.00,,,0.00,VWS V12.08,2013-02-06 14:36:00,
2013-02-06 09:41:00,48.7,43.2,29.23,North,0,0.0,0.0,81,0.00,,,0.00,VWS V12.08,2013-02-06 14:41:00,
2013-02-06 09:46:00,49.1,42.9,29.23,North,0,0.0,0.0,79,0.00,,,0.00,VWS V12.08,2013-02-06 14:46:00,
2013-02-06 09:51:00,49.6,43.4,29.23,North,0,0.0,0.0,79,0.00,,,0.00,VWS V12.08,2013-02-06 14:51:00,
2013-02-06 09:56:00,50.0,35.4,29.23,North,0,0.0,0.0,57,0.00,,,0.00,VWS V12.08,2013-02-06 14:56:00,
2013-02-06 10:01:00,50.7,36.9,29.23,North,0,0.0,0.0,59,0.00,,,0.00,VWS V12.08,2013-02-06 15:01:00,
2013-02-06 10:06:00,50.9,29.2,29.23,North,0,0.0,0.0,43,0.00,,,0.00,VWS V12.08,2013-02-06 15:06:00,
2013-02-06 10:11:00,51.3,29.5,29.23,North,0,0.0,0.0,43,0.00,,,0.00,VWS V12.08,2013-02-06 15:11:00,
2013-02-06 10:16:00,51.6,29.9,29.23,North,0,0.0,0.0,43,0.00,,,0.00,VWS V12.08,2013-02-06 15:16:00,
2013-02-06 10:21:00,51.8,28.9,29.23,North,0,0.0,0.0,41,0.00,,,0.00,VWS V12.08,2013-02-06 15:21:00,
2013-02-06 10:26:00,52.0,29.0,29.23,North,0,0.0,0.0,41,0.00,,,0.00,VWS V12.08,2013-02-06 15:26:00,
2013-02-06 10:31:00,52.0,29.0,29.23,North,0,0.0,0.0,41,0.00,,,0.00,VWS V12.08,2013-02-06 15:31:00,
2013-02-06 10:36:00,51.8,28.9,29.23,North,0,0.0,0.0,41,0.00,,,0.00,VWS V12.08,2013-02-06 15:36:00,
2013-02-06 10:41:00,52.2,29.2,29.23,North,0,0.0,0.0,41,0.00,,,0.00,VWS V12.08,2013-02-06 15:41:00,
2013-02-06 10:46:00,52.3,29.4,29.23,North,0,0.0,0.0,41,0.00,,,0.00,VWS V12.08,2013-02-06 15:46:00,
2013-02-06 10:51:00,52.7,29.7,29.23,North,0,0.0,0.0,41,0.00,,,0.00,VWS V12.08,2013-02-06 15:51:00,
2013-02-06 10:56:00,52.9,29.8,29.23,North,0,0.0,0.0,41,0.00,,,0.00,VWS V12.08,2013-02-06 15:56:00,
2013-02-06 11:01:00,53.2,30.2,29.23,North,0,0.0,0.0,41,0.00,,,0.00,VWS V12.08,2013-02-06 16:01:00,
2013-02-06 11:06:00,53.2,30.2,29.23,North,0,0.0,0.0,41,0.00,,,0.00,VWS V12.08,2013-02-06 16:06:00,
2013-02-06 11:11:00,53.8,30.6,29.23,North,0,0.0,0.0,41,0.00,,,0.00,VWS V12.08,2013-02-06 16:11:00,
2013-02-06 11:16:00,54.3,31.1,29.23,North,0,0.0,0.0,41,0.00,,,0.00,VWS V12.08,2013-02-06 16:16:00,
2013-02-06 11:21:00,54.5,31.3,29.23,North,0,0.0,0.0,41,0.00,,,0.00,VWS V12.08,2013-02-06 16:21:00,
2013-02-06 11:26:00,54.7,31.5,29.23,North,0,0.0,0.0,41,0.00,,,0.00,VWS V12.08,2013-02-06 16:26:00,
2013-02-06 11:31:00,54.9,31.6,29.23,North,0,0.0,0.0,41,0.00,,,0.00,VWS V12.08,2013-02-06 16:31:00,
2013-02-06 11:36:00,55.2,32.0,29.23,North,0,0.0,0.0,41,0.00,,,0.00,VWS V12.08,2013-02-06 16:36:00,
2013-02-06 11:41:00,55.6,31.0,29.23,North,0,0.0,0.0,39,0.00,,,0.00,VWS V12.08,2013-02-06 16:41:00,
2013-02-06 11:46:00,56.3,31.7,29.23,North,0,0.0,0.0,39,0.00,,,0.00,VWS V12.08,2013-02-06 16:46:00,
2013-02-06 11:51:00,56.8,32.2,29.23,North,0,0.0,0.0,39,0.00,,,0.00,VWS V12.08,2013-02-06 16:51:00,
2013-02-06 11:56:00,57.0,32.3,29.23,North,0,0.0,0.0,39,0.00,,,0.00,VWS V12.08,2013-02-06 16:56:00,
2013-02-06 12:01:00,57.6,32.8,29.23,North,0,0.0,0.0,39,0.00,,,0.00,VWS V12.08,2013-02-06 17:01:00,
2013-02-06 12:06:00,58.1,33.3,29.23,North,0,0.0,0.0,39,0.00,,,0.00,VWS V12.08,2013-02-06 17:06:00,
2013-02-06 12:11:00,58.5,33.6,29.23,North,0,0.0,0.0,39,0.00,,,0.00,VWS V12.08,2013-02-06 17:11:00,
2013-02-06 12:16:00,59.2,34.3,29.23,North,0,0.0,0.0,39,0.00,,,0.00,VWS V12.08,2013-02-06 17:16:00,
2013-02-06 12:21:00,59.7,34.7,29.23,North,0,0.0,0.0,39,0.00,,,0.00,VWS V12.08,2013-02-06 17:21:00,
2013-02-06 12:26:00,60.4,35.4,29.23,North,0,0.0,0.0,39,0.00,,,0.00,VWS V12.08,2013-02-06 17:26:00,
2013-02-06 12:31:00,60.8,34.4,29.23,North,0,0.0,0.0,37,0.00,,,0.00,VWS V12.08,2013-02-06 17:31:00,
2013-02-06 12:36:00,61.5,35.0,29.23,North,0,0.0,0.0,37,0.00,,,0.00,VWS V12.08,2013-02-06 17:36:00,
2013-02-06 12:41:00,61.9,35.3,29.23,North,0,0.0,0.0,37,0.00,,,0.00,VWS V12.08,2013-02-06 17:41:00,
2013-02-06 12:46:00,62.4,35.8,29.23,North,0,0.0,0.0,37,0.00,,,0.00,VWS V12.08,2013-02-06 17:46:00,
2013-02-06 12:51:00,62.6,36.0,29.23,North,0,0.0,0.0,37,0.00,,,0.00,VWS V12.08,2013-02-06 17:51:00,
2013-02-06 12:56:00,64.0,37.3,29.23,North,0,0.0,0.0,37,0.00,,,0.00,VWS V12.08,2013-02-06 17:56:00,
2013-02-06 13:01:00,64.8,36.5,29.23,North,0,0.0,0.0,35,0.00,,,0.00,VWS V12.08,2013-02-06 18:01:00,
2013-02-06 13:06:00,64.8,36.5,29.23,North,0,0.0,0.0,35,0.00,,,0.00,VWS V12.08,2013-02-06 18:06:00,
2013-02-06 13:11:00,65.1,36.8,29.21,North,0,0.0,0.0,35,0.00,,,0.00,VWS V12.08,2013-02-06 18:11:00,
2013-02-06 13:16:00,65.8,37.5,29.21,North,0,0.0,0.0,35,0.00,,,0.00,VWS V12.08,2013-02-06 18:16:00,
2013-02-06 13:21:00,66.6,38.1,29.21,North,0,0.0,0.0,35,0.00,,,0.00,VWS V12.08,2013-02-06 18:21:00,
2013-02-06 13:26:00,66.9,38.4,29.21,North,0,0.0,0.0,35,0.00,,,0.00,VWS V12.08,2013-02-06 18:26:00,
2013-02-06 13:31:00,67.1,38.6,29.21,North,0,0.0,0.0,35,0.00,,,0.00,VWS V12.08,2013-02-06 18:31:00,
2013-02-06 13:36:00,67.3,38.7,29.21,North,0,0.0,0.0,35,0.00,,,0.00,VWS V12.08,2013-02-06 18:36:00,
2013-02-06 13:41:00,67.3,38.7,29.21,North,0,0.0,0.0,35,0.00,,,0.00,VWS V12.08,2013-02-06 18:41:00,
2013-02-06 13:46:00,67.5,38.9,29.21,North,0,0.0,0.0,35,0.00,,,0.00,VWS V12.08,2013-02-06 18:46:00,
2013-02-06 13:51:00,67.6,39.0,29.21,North,0,0.0,0.0,35,0.00,,,0.00,VWS V12.08,2013-02-06 18:51:00,
2013-02-06 13:56:00,67.1,38.6,29.21,North,0,0.0,0.0,35,0.00,,,0.00,VWS V12.08,2013-02-06 18:56:00,
2013-02-06 14:01:00,67.6,39.0,29.21,North,0,0.0,0.0,35,0.00,,,0.00,VWS V12.08,2013-02-06 19:01:00,
2013-02-06 14:06:00,68.2,39.5,29.21,North,0,0.0,0.0,35,0.00,,,0.00,VWS V12.08,2013-02-06 19:06:00,
2013-02-06 14:11:00,68.4,39.7,29.18,North,0,0.0,0.0,35,0.00,,,0.00,VWS V12.08,2013-02-06 19:11:00,
2013-02-06 14:16:00,68.7,40.0,29.18,North,0,0.0,0.0,35,0.00,,,0.00,VWS V12.08,2013-02-06 19:16:00,
2013-02-06 14:21:00,69.3,40.5,29.18,North,0,0.0,0.0,35,0.00,,,0.00,VWS V12.08,2013-02-06 19:21:00,
2013-02-06 14:26:00,69.6,40.8,29.18,North,0,0.0,0.0,35,0.00,,,0.00,VWS V12.08,2013-02-06 19:26:00,
2013-02-06 14:31:00,69.1,40.3,29.18,North,0,0.0,0.0,35,0.00,,,0.00,VWS V12.08,2013-02-06 19:31:00,
2013-02-06 14:36:00,69.3,40.5,29.18,North,0,0.0,0.0,35,0.00,,,0.00,VWS V12.08,2013-02-06 19:36:00,
2013-02-06 14:41:00,69.3,40.5,29.18,North,0,0.0,0.0,35,0.00,,,0.00,VWS V12.08,2013-02-06 19:41:00,
2013-02-06 14:46:00,69.6,40.8,29.18,North,0,0.0,0.0,35,0.00,,,0.00,VWS V12.08,2013-02-06 19:46:00,
2013-02-06 14:51:00,70.0,39.6,29.18,North,0,0.0,0.0,33,0.00,,,0.00,VWS V12.08,2013-02-06 19:51:00,
2013-02-06 14:56:00,69.3,40.5,29.18,North,0,0.0,0.0,35,0.00,,,0.00,VWS V12.08,2013-02-06 19:56:00,
2013-02-06 15:01:00,69.3,40.5,29.18,North,0,0.0,0.0,35,0.00,,,0.00,VWS V12.08,2013-02-06 20:01:00,
2013-02-06 15:06:00,69.4,40.6,29.18,North,0,0.0,0.0,35,0.00,,,0.00,VWS V12.08,2013-02-06 20:06:00,
2013-02-06 15:11:00,69.6,40.8,29.18,North,0,0.0,0.0,35,0.00,,,0.00,VWS V12.08,2013-02-06 20:11:00,
2013-02-06 15:16:00,69.6,40.8,29.18,North,0,0.0,0.0,35,0.00,,,0.00,VWS V12.08,2013-02-06 20:16:00,
2013-02-06 15:21:00,69.6,40.8,29.18,North,0,0.0,0.0,35,0.00,,,0.00,VWS V12.08,2013-02-06 20:21:00,
2013-02-06 15:26:00,69.6,40.8,29.18,North,0,0.0,0.0,35,0.00,,,0.00,VWS V12.08,2013-02-06 20:26:00,
2013-02-06 15:31:00,69.6,40.8,29.18,North,0,0.0,0.0,35,0.00,,,0.00,VWS V12.08,2013-02-06 20:31:00,
2013-02-06 15:36:00,69.8,39.4,29.18,North,0,0.0,0.0,33,0.00,,,0.00,VWS V12.08,2013-02-06 20:36:00,
2013-02-06 15:41:00,69.4,40.6,29.18,North,0,0.0,0.0,35,0.00,,,0.00,VWS V12.08,2013-02-06 20:41:00,
2013-02-06 15:46:00,69.3,40.5,29.18,North,0,0.0,0.0,35,0.00,,,0.00,VWS V12.08,2013-02-06 20:46:00,
2013-02-06 15:51:00,69.1,40.3,29.18,North,0,0.0,0.0,35,0.00,,,0.00,VWS V12.08,2013-02-06 20:51:00,
2013-02-06 15:56:00,69.1,40.3,29.18,North,0,0.0,0.0,35,0.00,,,0.00,VWS V12.08,2013-02-06 20:56:00,
2013-02-06 16:01:00,68.7,40.0,29.18,North,0,0.0,0.0,35,0.00,,,0.00,VWS V12.08,2013-02-06 21:01:00,
2013-02-06 16:06:00,67.5,38.9,29.18,North,0,0.0,0.0,35,0.00,,,0.00,VWS V12.08,2013-02-06 21:06:00,
2013-02-06 16:11:00,67.3,38.7,29.18,North,0,0.0,0.0,35,0.00,,,0.00,VWS V12.08,2013-02-06 21:11:00,
2013-02-06 16:16:00,67.3,38.7,29.18,North,0,0.0,0.0,35,0.00,,,0.00,VWS V12.08,2013-02-06 21:16:00,
2013-02-06 16:21:00,66.7,38.2,29.18,North,0,0.0,0.0,35,0.00,,,0.00,VWS V12.08,2013-02-06 21:21:00,
2013-02-06 16:26:00,66.4,37.9,29.18,North,0,0.0,0.0,35,0.00,,,0.00,VWS V12.08,2013-02-06 21:26:00,
2013-02-06 16:31:00,66.6,38.1,29.18,North,0,0.0,0.0,35,0.00,,,0.00,VWS V12.08,2013-02-06 21:31:00,
2013-02-06 16:36:00,66.7,38.2,29.18,North,0,0.0,0.0,35,0.00,,,0.00,VWS V12.08,2013-02-06 21:36:00,
2013-02-06 16:41:00,66.6,38.1,29.15,North,0,0.0,0.0,35,0.00,,,0.00,VWS V12.08,2013-02-06 21:41:00,
2013-02-06 16:46:00,65.1,36.8,29.15,North,0,0.0,0.0,35,0.00,,,0.00,VWS V12.08,2013-02-06 21:46:00,
2013-02-06 16:51:00,65.3,37.0,29.15,North,0,0.0,0.0,35,0.00,,,0.00,VWS V12.08,2013-02-06 21:51:00,
2013-02-06 16:56:00,65.3,37.0,29.15,North,0,0.0,0.0,35,0.00,,,0.00,VWS V12.08,2013-02-06 21:56:00,
2013-02-06 17:01:00,65.1,36.8,29.15,North,0,0.0,0.0,35,0.00,,,0.00,VWS V12.08,2013-02-06 22:01:00,
2013-02-06 17:06:00,64.9,36.7,29.15,North,0,0.0,0.0,35,0.00,,,0.00,VWS V12.08,2013-02-06 22:06:00,
2013-02-06 17:11:00,64.4,36.2,29.15,North,0,0.0,0.0,35,0.00,,,0.00,VWS V12.08,2013-02-06 22:11:00,
2013-02-06 17:16:00,64.2,37.4,29.15,North,0,0.0,0.0,37,0.00,,,0.00,VWS V12.08,2013-02-06 22:16:00,
2013-02-06 17:21:00,63.5,36.8,29.15,North,0,0.0,0.0,37,0.00,,,0.00,VWS V12.08,2013-02-06 22:21:00,
2013-02-06 17:26:00,63.3,36.6,29.15,North,0,0.0,0.0,37,0.00,,,0.00,VWS V12.08,2013-02-06 22:26:00,
2013-02-06 17:31:00,62.8,36.2,29.15,North,0,0.0,0.0,37,0.00,,,0.00,VWS V12.08,2013-02-06 22:31:00,
2013-02-06 17:36:00,62.2,35.7,29.15,North,0,0.0,0.0,37,0.00,,,0.00,VWS V12.08,2013-02-06 22:36:00,
2013-02-06 17:41:00,61.9,35.3,29.15,North,0,0.0,0.0,37,0.00,,,0.00,VWS V12.08,2013-02-06 22:41:00,
2013-02-06 17:46:00,61.5,35.0,29.15,North,0,0.0,0.0,37,0.00,,,0.00,VWS V12.08,2013-02-06 22:46:00,
2013-02-06 17:51:00,61.2,34.7,29.15,North,0,0.0,0.0,37,0.00,,,0.00,VWS V12.08,2013-02-06 22:51:00,
2013-02-06 17:56:00,60.4,35.4,29.15,North,0,0.0,0.0,39,0.00,,,0.00,VWS V12.08,2013-02-06 22:56:00,
2013-02-06 18:01:00,60.1,35.1,29.15,North,0,0.0,0.0,39,0.00,,,0.00,VWS V12.08,2013-02-06 23:01:00,
2013-02-06 18:06:00,59.7,34.7,29.15,North,0,0.0,0.0,39,0.00,,,0.00,VWS V12.08,2013-02-06 23:06:00,
2013-02-06 18:11:00,59.5,34.6,29.15,North,0,0.0,0.0,39,0.00,,,0.00,VWS V12.08,2013-02-06 23:11:00,
2013-02-06 18:16:00,59.2,34.3,29.15,North,0,0.0,0.0,39,0.00,,,0.00,VWS V12.08,2013-02-06 23:16:00,
2013-02-06 18:21:00,58.8,33.9,29.15,North,0,0.0,0.0,39,0.00,,,0.00,VWS V12.08,2013-02-06 23:21:00,
2013-02-06 18:26:00,58.3,33.5,29.15,North,0,0.0,0.0,39,0.00,,,0.00,VWS V12.08,2013-02-06 23:26:00,
2013-02-06 18:31:00,58.1,33.3,29.15,North,0,0.0,0.0,39,0.00,,,0.00,VWS V12.08,2013-02-06 23:31:00,
2013-02-06 18:36:00,57.7,33.0,29.18,North,0,0.0,0.0,39,0.00,,,0.00,VWS V12.08,2013-02-06 23:36:00,
2013-02-06 18:41:00,57.4,32.7,29.18,North,0,0.0,0.0,39,0.00,,,0.00,VWS V12.08,2013-02-06 23:41:00,
2013-02-06 18:46:00,57.0,32.3,29.18,North,0,0.0,0.0,39,0.00,,,0.00,VWS V12.08,2013-02-06 23:46:00,
2013-02-06 18:51:00,57.0,32.3,29.18,North,0,0.0,0.0,39,0.00,,,0.00,VWS V12.08,2013-02-06 23:51:00,
2013-02-06 18:56:00,57.0,32.3,29.15,North,0,0.0,0.0,39,0.00,,,0.00,VWS V12.08,2013-02-06 23:56:00,
2013-02-06 19:01:00,56.8,32.2,29.15,North,0,0.0,0.0,39,0.00,,,0.00,VWS V12.08,2013-02-07 00:01:00,
2013-02-06 19:06:00,56.5,31.8,29.15,North,0,0.0,0.0,39,0.00,,,0.00,VWS V12.08,2013-02-07 00:06:00,
2013-02-06 19:11:00,56.1,31.5,29.15,North,0,0.0,0.0,39,0.00,,,0.00,VWS V12.08,2013-02-07 00:11:00,
2013-02-06 19:16:00,55.8,31.2,29.15,North,0,0.0,0.0,39,0.00,,,0.00,VWS V12.08,2013-02-07 00:16:00,
2013-02-06 19:21:00,55.4,30.9,29.15,North,0,0.0,0.0,39,0.00,,,0.00,VWS V12.08,2013-02-07 00:21:00,
2013-02-06 19:26:00,55.0,31.8,29.15,North,0,0.0,0.0,41,0.00,,,0.00,VWS V12.08,2013-02-07 00:26:00,
2013-02-06 19:31:00,54.5,31.3,29.15,North,0,0.0,0.0,41,0.00,,,0.00,VWS V12.08,2013-02-07 00:31:00,
2013-02-06 19:36:00,54.3,31.1,29.15,North,0,0.0,0.0,41,0.00,,,0.00,VWS V12.08,2013-02-07 00:36:00,
2013-02-06 19:41:00,54.1,31.0,29.18,North,0,0.0,0.0,41,0.00,,,0.00,VWS V12.08,2013-02-07 00:41:00,
2013-02-06 19:46:00,54.0,30.8,29.18,North,0,0.0,0.0,41,0.00,,,0.00,VWS V12.08,2013-02-07 00:46:00,
2013-02-06 19:51:00,53.6,30.5,29.18,North,0,0.0,0.0,41,0.00,,,0.00,VWS V12.08,2013-02-07 00:51:00,
2013-02-06 19:56:00,53.6,30.5,29.18,North,0,0.0,0.0,41,0.00,,,0.00,VWS V12.08,2013-02-07 00:56:00,
2013-02-06 20:01:00,53.4,30.3,29.18,North,0,0.0,0.0,41,0.00,,,0.00,VWS V12.08,2013-02-07 01:01:00,
2013-02-06 20:06:00,53.2,30.2,29.18,North,0,0.0,0.0,41,0.00,,,0.00,VWS V12.08,2013-02-07 01:06:00,
2013-02-06 20:11:00,53.1,30.0,29.18,North,0,0.0,0.0,41,0.00,,,0.00,VWS V12.08,2013-02-07 01:11:00,
2013-02-06 20:16:00,52.9,29.8,29.18,North,0,0.0,0.0,41,0.00,,,0.00,VWS V12.08,2013-02-07 01:16:00,
2013-02-06 20:21:00,52.9,29.8,29.18,North,0,0.0,0.0,41,0.00,,,0.00,VWS V12.08,2013-02-07 01:21:00,
2013-02-06 20:26:00,52.7,29.7,29.18,North,0,0.0,0.0,41,0.00,,,0.00,VWS V12.08,2013-02-07 01:26:00,
2013-02-06 20:31:00,52.7,29.7,29.18,North,0,0.0,0.0,41,0.00,,,0.00,VWS V12.08,2013-02-07 01:31:00,
2013-02-06 20:36:00,52.7,29.7,29.18,North,0,0.0,0.0,41,0.00,,,0.00,VWS V12.08,2013-02-07 01:36:00,
2013-02-06 20:41:00,52.3,29.4,29.18,North,0,0.0,0.0,41,0.00,,,0.00,VWS V12.08,2013-02-07 01:41:00,
2013-02-06 20:46:00,52.3,29.4,29.18,North,0,0.0,0.0,41,0.00,,,0.00,VWS V12.08,2013-02-07 01:46:00,
2013-02-06 20:51:00,52.3,29.4,29.18,North,0,0.0,0.0,41,0.00,,,0.00,VWS V12.08,2013-02-07 01:51:00,
2013-02-06 20:56:00,52.0,29.0,29.18,North,0,0.0,0.0,41,0.00,,,0.00,VWS V12.08,2013-02-07 01:56:00,
2013-02-06 21:01:00,51.8,28.9,29.18,North,0,0.0,0.0,41,0.00,,,0.00,VWS V12.08,2013-02-07 02:01:00,
2013-02-06 21:06:00,51.8,28.9,29.18,North,0,0.0,0.0,41,0.00,,,0.00,VWS V12.08,2013-02-07 02:06:00,
2013-02-06 21:11:00,51.6,29.9,29.18,North,0,0.0,0.0,43,0.00,,,0.00,VWS V12.08,2013-02-07 02:11:00,
2013-02-06 21:16:00,51.4,29.7,29.18,North,0,0.0,0.0,43,0.00,,,0.00,VWS V12.08,2013-02-07 02:16:00,
2013-02-06 21:21:00,51.4,29.7,29.18,North,0,0.0,0.0,43,0.00,,,0.00,VWS V12.08,2013-02-07 02:21:00,
2013-02-06 21:26:00,51.3,25.9,29.18,North,0,0.0,0.0,37,0.00,,,0.00,VWS V12.08,2013-02-07 02:26:00,
2013-02-06 21:31:00,51.3,29.5,29.18,North,0,0.0,0.0,43,0.00,,,0.00,VWS V12.08,2013-02-07 02:31:00,
2013-02-06 21:36:00,51.3,25.9,29.18,North,0,0.0,0.0,37,0.00,,,0.00,VWS V12.08,2013-02-07 02:36:00,
2013-02-06 21:41:00,51.1,25.7,29.18,North,0,0.0,0.0,37,0.00,,,0.00,VWS V12.08,2013-02-07 02:41:00,
2013-02-06 21:46:00,51.1,25.7,29.18,North,0,0.0,0.0,37,0.00,,,0.00,VWS V12.08,2013-02-07 02:46:00,
2013-02-06 21:51:00,51.1,25.7,29.18,North,0,0.0,0.0,37,0.00,,,0.00,VWS V12.08,2013-02-07 02:51:00,
2013-02-06 21:56:00,50.9,25.6,29.18,North,0,0.0,0.0,37,0.00,,,0.00,VWS V12.08,2013-02-07 02:56:00,
2013-02-06 22:01:00,50.9,25.6,29.18,North,0,0.0,0.0,37,0.00,,,0.00,VWS V12.08,2013-02-07 03:01:00,
2013-02-06 22:06:00,50.9,25.6,29.18,North,0,0.0,0.0,37,0.00,,,0.00,VWS V12.08,2013-02-07 03:06:00,
2013-02-06 22:11:00,50.7,25.4,29.18,North,0,0.0,0.0,37,0.00,,,0.00,VWS V12.08,2013-02-07 03:11:00,
2013-02-06 22:16:00,50.5,25.2,29.18,North,0,0.0,0.0,37,0.00,,,0.00,VWS V12.08,2013-02-07 03:16:00,
2013-02-06 22:21:00,50.2,24.9,29.18,North,0,0.0,0.0,37,0.00,,,0.00,VWS V12.08,2013-02-07 03:21:00,
2013-02-06 22:26:00,50.0,24.8,29.18,North,0,0.0,0.0,37,0.00,,,0.00,VWS V12.08,2013-02-07 03:26:00,
2013-02-06 22:31:00,49.6,24.5,29.18,North,0,0.0,0.0,37,0.00,,,0.00,VWS V12.08,2013-02-07 03:31:00,
2013-02-06 22:36:00,49.6,24.5,29.18,North,0,0.0,0.0,37,0.00,,,0.00,VWS V12.08,2013-02-07 03:36:00,
2013-02-06 22:41:00,49.5,24.3,29.18,North,0,0.0,0.0,37,0.00,,,0.00,VWS V12.08,2013-02-07 03:41:00,
2013-02-06 22:46:00,49.5,24.3,29.18,North,0,0.0,0.0,37,0.00,,,0.00,VWS V12.08,2013-02-07 03:46:00,
2013-02-06 22:51:00,49.5,24.3,29.18,North,0,0.0,0.0,37,0.00,,,0.00,VWS V12.08,2013-02-07 03:51:00,
2013-02-06 22:56:00,49.1,24.0,29.18,North,0,0.0,0.0,37,0.00,,,0.00,VWS V12.08,2013-02-07 03:56:00,
2013-02-06 23:01:00,48.7,23.6,29.18,North,0,0.0,0.0,37,0.00,,,0.00,VWS V12.08,2013-02-07 04:01:00,
2013-02-06 23:09:00,48.6,23.5,29.18,North,0,0.0,0.0,37,0.00,,,0.00,VWS V12.08,2013-02-07 04:09:00,
2013-02-06 23:15:00,48.7,23.6,29.18,North,0,0.0,0.0,37,0.00,,,0.00,VWS V12.08,2013-02-07 04:15:00,
2013-02-06 23:23:00,49.1,24.0,29.18,North,0,0.0,0.0,37,0.00,,,0.00,VWS V12.08,2013-02-07 04:23:00,
2013-02-06 23:37:00,48.6,23.5,29.18,North,0,0.0,0.0,37,0.00,,,0.00,VWS V12.08,2013-02-07 04:37:00,
2013-02-06 23:44:00,48.4,23.3,29.18,North,0,0.0,0.0,37,0.00,,,0.00,VWS V12.08,2013-02-07 04:44:00,
2013-02-06 23:51:00,48.4,23.3,29.18,North,0,0.0,0.0,37,0.00,,,0.00,VWS V12.08,2013-02-07 04:51:00,
2013-02-06 23:58:00,48.6,23.5,29.18,North,0,0.0,0.0,37,0.00,,,0.00,VWS V12.08,2013-02-07 04:58:00,